Time;durP1;ratioP1;P1;durP2;ratioP2;P2;SDS_P1;SDS_P2;PMS_P1;PMS_P2;Temp;Humidity;BMP_temperature;BMP_pressure;BME280_temperature;BME280_humidity;BME280_pressure;Samples;Min_cycle;Max_cycle;Signal;HPM_P1;HPM_P2
2022/08/13 00:01:38;;;;;;;7.38;3.63;;;;;;;21.92;47.38;100865.66;5071965;28;20049;-80
2022/08/13 00:04:06;;;;;;;6.07;3.65;;;;;;;21.81;47.93;100857.38;5072366;28;20116;-80
2022/08/13 00:09:16;;;;;;;5.25;4.60;;;;;;;21.73;47.47;100857.72;5052970;28;20041;-80
2022/08/13 00:14:34;;;;;;;6.32;4.18;;;;;;;21.80;46.95;100865.59;5068411;28;20110;-79
2022/08/13 00:17:01;;;;;;;;;;;;;;;21.77;47.37;100871.38;5069187;28;20045;-80
2022/08/13 00:19:29;;;;;;;5.72;4.53;;;;;;;21.68;47.72;100868.22;5069887;28;20293;-81
2022/08/13 00:21:56;;;;;;;7.82;5.18;;;;;;;21.59;48.16;100866.06;5064883;28;20073;-79
2022/08/13 00:24:25;;;;;;;7.43;5.85;;;;;;;21.49;49.01;100866.59;5057007;28;20083;-78
2022/08/13 00:26:52;;;;;;;8.82;6.07;;;;;;;21.40;48.60;100871.38;5060843;28;20083;-79
2022/08/13 00:29:19;;;;;;;8.98;6.03;;;;;;;21.33;49.26;100865.31;5074334;23;20056;-78
2022/08/13 00:31:50;;;;;;;15.40;6.68;;;;;;;21.31;49.55;100874.56;5066607;28;20040;-78
2022/08/13 00:34:18;;;;;;;9.65;6.70;;;;;;;21.29;49.31;100880.09;5072121;28;20495;-76
2022/08/13 00:36:45;;;;;;;7.32;6.63;;;;;;;21.23;49.66;100869.53;5071765;28;20048;-77
2022/08/13 00:39:12;;;;;;;7.78;6.35;;;;;;;21.12;50.14;100863.88;5071582;28;20470;-77
2022/08/13 00:41:43;;;;;;;11.60;6.68;;;;;;;21.06;50.60;100866.59;5058830;28;20140;-77
2022/08/13 00:44:13;;;;;;;13.88;7.28;;;;;;;21.00;51.06;100862.97;5052178;28;20136;-77
2022/08/13 00:46:45;;;;;;;9.93;6.20;;;;;;;20.90;50.46;100861.81;5052533;28;20049;-78
2022/08/13 00:49:13;;;;;;;9.85;6.00;;;;;;;20.84;50.87;100855.53;5052542;28;20534;-79
2022/08/13 00:51:41;;;;;;;7.22;5.78;;;;;;;20.85;50.86;100860.63;5052663;28;20052;-79
2022/08/13 00:54:09;;;;;;;9.35;5.85;;;;;;;20.85;50.96;100860.63;5053162;28;20099;-78
2022/08/13 00:56:36;;;;;;;8.13;5.60;;;;;;;20.79;51.03;100861.53;5052991;28;20045;-78
2022/08/13 00:59:11;;;;;;;6.55;5.50;;;;;;;20.72;51.31;100860.75;5052325;28;20138;-78
2022/08/13 01:01:39;;;;;;;9.07;5.70;;;;;;;20.71;51.04;100859.13;5053096;28;20048;-78
2022/08/13 01:04:07;;;;;;;6.32;5.03;;;;;;;20.71;50.72;100851.16;5052794;28;20048;-77
2022/08/13 01:06:33;;;;;;;6.75;4.82;;;;;;;20.71;51.54;100863.63;5052240;28;20491;-78
2022/08/13 01:09:01;;;;;;;5.70;5.10;;;;;;;20.65;51.58;100870.63;5051444;28;20037;-78
2022/08/13 01:11:31;;;;;;;5.80;4.57;;;;;;;20.65;51.63;100870.63;5051822;28;20486;-79
2022/08/13 01:14:00;;;;;;;8.18;4.97;;;;;;;20.63;51.58;100867.38;5051549;28;20057;-78
2022/08/13 01:16:36;;;;;;;6.88;4.90;;;;;;;20.62;51.24;100860.41;5051617;28;20139;-78
2022/08/13 01:19:09;;;;;;;6.68;4.55;;;;;;;20.60;51.21;100857.16;5051149;28;20048;-78
2022/08/13 01:21:40;;;;;;;10.43;4.80;;;;;;;20.54;51.17;100853.53;5051446;28;20051;-78
2022/08/13 01:24:12;;;;;;;9.50;4.45;;;;;;;20.56;50.90;100853.31;5050826;28;20099;-78
2022/08/13 01:26:40;;;;;;;5.97;4.68;;;;;;;20.54;51.01;100848.22;5051533;28;20052;-78
2022/08/13 01:29:09;;;;;;;6.32;4.60;;;;;;;20.63;50.86;100855.91;5051419;28;20045;-77
2022/08/13 01:31:36;;;;;;;8.98;4.45;;;;;;;20.62;51.15;100859.59;5051803;28;20090;-77
2022/08/13 01:34:04;;;;;;;14.68;4.60;;;;;;;20.49;51.83;100857.84;5051969;28;20098;-78
2022/08/13 01:36:32;;;;;;;9.23;5.10;;;;;;;20.45;51.91;100865.44;5052372;28;20061;-78
2022/08/13 01:39:04;;;;;;;5.05;4.55;;;;;;;20.37;52.21;100855.03;5052469;28;20053;-79
2022/08/13 01:41:31;;;;;;;6.85;4.57;;;;;;;20.31;52.55;100860.41;5052602;28;20049;-78
2022/08/13 01:44:04;;;;;;;9.35;4.90;;;;;;;20.24;52.72;100865.78;5051058;28;20127;-77
2022/08/13 01:50:28;;;;;;;7.82;5.03;;;;;;;20.15;53.39;100867.03;5050729;28;20458;-79
2022/08/13 01:52:07;;;;;;;8.73;4.93;;;;;;;20.10;53.56;100862.38;5050615;28;20534;-78
2022/08/13 01:54:35;;;;;;;9.82;5.30;;;;;;;20.05;53.26;100864.84;5051204;28;20082;-78
2022/08/13 01:57:04;;;;;;;7.50;5.13;;;;;;;20.07;52.94;100854.81;5051118;28;20143;-77
2022/08/13 01:59:34;;;;;;;9.55;5.15;;;;;;;20.07;52.95;100862.78;5051263;28;20053;-78
2022/08/13 02:02:01;;;;;;;10.02;4.97;;;;;;;20.12;52.63;100862.97;5054678;28;20041;-78
2022/08/13 02:04:29;;;;;;;9.00;5.10;;;;;;;20.10;52.83;100867.69;5055209;28;20045;-78
2022/08/13 02:06:59;;;;;;;6.65;5.53;;;;;;;20.06;52.87;100871.78;5054965;28;20045;-76
2022/08/13 02:09:26;;;;;;;8.85;4.75;;;;;;;20.01;52.88;100868.13;5055202;28;20090;-75
2022/08/13 02:11:54;;;;;;;7.25;5.63;;;;;;;19.96;52.99;100870.59;5055290;28;20523;-76
2022/08/13 02:14:22;;;;;;;8.80;5.20;;;;;;;19.92;53.29;100870.22;5055158;28;20053;-77
2022/08/13 02:16:49;;;;;;;6.82;5.32;;;;;;;19.87;53.56;100862.88;5055088;28;20045;-77
2022/08/13 02:19:16;;;;;;;8.57;5.80;;;;;;;19.85;53.85;100874.72;5055157;28;20189;-77
2022/08/13 02:21:44;;;;;;;8.07;5.35;;;;;;;19.80;54.70;100872.75;5055393;28;20514;-76
2022/08/13 02:24:13;;;;;;;8.32;5.72;;;;;;;19.76;54.52;100870.72;5054918;28;20061;-77
2022/08/13 02:26:42;;;;;;;9.93;5.50;;;;;;;19.71;54.80;100878.50;5054969;28;20045;-77
2022/08/13 02:29:12;;;;;;;8.63;5.63;;;;;;;19.62;54.80;100874.44;5054386;28;20053;-77
2022/08/13 02:31:42;;;;;;;6.55;5.43;;;;;;;19.64;54.77;100877.69;5054823;28;20088;-77
2022/08/13 02:34:10;;;;;;;7.78;5.45;;;;;;;19.59;54.98;100875.66;5055106;28;20067;-77
2022/08/13 02:36:40;;;;;;;8.27;5.30;;;;;;;19.55;54.99;100880.56;5055073;28;20427;-77
2022/08/13 02:39:09;;;;;;;7.63;5.22;;;;;;;19.57;54.80;100868.94;5056632;28;20053;-77
2022/08/13 02:41:38;;;;;;;7.32;5.70;;;;;;;19.49;54.85;100877.91;5055113;28;20055;-77
2022/08/13 02:44:05;;;;;;;9.38;5.70;;;;;;;19.48;55.71;100876.25;5054497;28;20041;-78
2022/08/13 02:46:34;;;;;;;9.02;5.57;;;;;;;19.50;55.42;100877.69;5053893;28;20132;-78
2022/08/13 02:49:02;;;;;;;12.82;5.82;;;;;;;19.45;55.07;100874.84;5054042;28;20561;-78
2022/08/13 02:51:34;;;;;;;7.00;5.78;;;;;;;19.45;55.06;100874.03;5054504;28;20056;-78
2022/08/13 02:54:02;;;;;;;9.52;5.82;;;;;;;19.35;55.72;100879.78;5034490;28;20142;-78
2022/08/13 02:56:29;;;;;;;7.53;5.50;;;;;;;19.27;56.12;100876.53;5036669;28;20510;-76
2022/08/13 02:58:57;;;;;;;6.43;5.72;;;;;;;19.26;56.16;100881.03;5053388;28;20049;-76
2022/08/13 03:01:24;;;;;;;6.53;5.75;;;;;;;19.24;56.51;100888.38;5053965;28;20055;-78
2022/08/13 03:03:52;;;;;;;7.03;5.75;;;;;;;19.21;56.80;100884.28;5054052;28;20473;-78
2022/08/13 03:06:19;;;;;;;9.07;5.95;;;;;;;19.17;56.55;100882.25;5053575;28;20141;-76
2022/08/13 03:08:48;;;;;;;8.35;5.75;;;;;;;19.15;56.46;100884.31;5053417;28;20144;-77
2022/08/13 03:11:15;;;;;;;8.82;5.88;;;;;;;19.09;57.41;100882.47;5052875;28;20053;-78
2022/08/13 03:13:44;;;;;;;14.05;6.30;;;;;;;19.16;57.11;100891.25;5053762;28;20136;-77
2022/08/13 03:16:15;;;;;;;10.35;5.80;;;;;;;19.10;57.00;100892.88;5053836;28;20041;-78
2022/08/13 03:18:41;;;;;;;8.77;5.95;;;;;;;19.01;57.55;100890.63;5056106;28;20053;-78
2022/08/13 03:21:09;;;;;;;9.20;6.00;;;;;;;18.95;57.71;100894.09;5061109;28;20064;-78
2022/08/13 03:23:36;;;;;;;10.18;5.90;;;;;;;18.93;57.97;100890.84;5059908;28;20048;-78
2022/08/13 03:26:03;;;;;;;8.57;5.65;;;;;;;18.89;58.13;100896.56;5055674;28;20080;-79
2022/08/13 03:28:29;;;;;;;7.85;6.07;;;;;;;18.89;58.27;100896.56;5054193;28;20136;-79
2022/08/13 03:30:56;;;;;;;9.98;5.65;;;;;;;18.84;58.38;100906.16;5054306;28;20079;-79
2022/08/13 03:33:24;;;;;;;7.13;5.80;;;;;;;18.78;58.11;100894.53;5053493;28;20127;-79
2022/08/13 03:35:51;;;;;;;10.48;6.07;;;;;;;18.77;58.54;100902.69;5053650;28;20099;-77
2022/08/13 03:38:19;;;;;;;8.27;6.00;;;;;;;18.75;58.18;100894.94;5052591;28;20057;-77
2022/08/13 03:41:11;;;;;;;7.13;5.78;;;;;;;18.75;58.23;100897.56;5053541;28;20080;-76
2022/08/13 03:43:42;;;;;;;6.05;5.45;;;;;;;18.71;58.90;100909.59;5053538;28;20418;-77
2022/08/13 03:46:09;;;;;;;7.28;5.93;;;;;;;18.70;58.80;100902.66;5053036;28;20049;-77
2022/08/13 03:48:36;;;;;;;7.70;5.75;;;;;;;18.71;58.41;100901.66;5052616;28;20566;-76
2022/08/13 03:51:03;;;;;;;9.43;6.22;;;;;;;18.71;58.82;100906.13;5053016;28;20049;-77
2022/08/13 03:53:31;;;;;;;6.03;5.43;;;;;;;18.71;58.65;100899.00;5052956;28;20076;-78
2022/08/13 03:56:00;;;;;;;9.70;6.07;;;;;;;18.69;58.52;100895.72;5052954;28;20052;-79
2022/08/13 03:58:28;;;;;;;10.73;5.82;;;;;;;18.69;58.15;100900.22;5053176;28;20067;-78
2022/08/13 04:00:56;;;;;;;8.25;5.65;;;;;;;18.68;58.62;100901.25;5053364;28;20076;-79
2022/08/13 04:03:28;;;;;;;11.90;5.72;;;;;;;18.69;58.56;100900.22;5052638;28;20495;-78
2022/08/13 04:05:58;;;;;;;5.93;5.32;;;;;;;18.73;58.46;100901.44;5053422;28;20086;-77
2022/08/13 04:08:27;;;;;;;7.07;6.10;;;;;;;18.65;58.58;100897.16;5052528;28;20432;-77
2022/08/13 04:10:57;;;;;;;7.05;6.07;;;;;;;18.65;58.05;100905.09;5053100;28;20067;-77
2022/08/13 04:13:26;;;;;;;7.93;6.20;;;;;;;18.60;58.69;100902.25;5052690;28;20045;-76
2022/08/13 04:15:52;;;;;;;10.35;6.30;;;;;;;18.59;58.76;100908.53;5052378;28;20127;-77
2022/08/13 04:18:19;;;;;;;8.57;5.70;;;;;;;18.53;58.80;100906.69;5052698;28;20106;-78
2022/08/13 04:20:54;;;;;;;10.25;6.10;;;;;;;18.57;58.75;100913.22;5054127;28;20107;-78
2022/08/13 04:23:22;;;;;;;6.45;5.75;;;;;;;18.58;59.08;100910.34;5053220;28;20132;-79
2022/08/13 04:25:50;;;;;;;7.05;5.65;;;;;;;18.54;59.20;100918.91;5053805;28;20072;-79
2022/08/13 04:28:21;;;;;;;9.45;5.70;;;;;;;18.60;59.18;100909.34;5054426;28;20076;-80
2022/08/13 04:30:48;;;;;;;9.20;5.93;;;;;;;18.55;59.16;100910.75;5053108;28;20053;-78
2022/08/13 04:33:16;;;;;;;8.98;5.80;;;;;;;18.57;59.36;100913.22;5053021;28;20072;-79
2022/08/13 04:35:45;;;;;;;7.00;6.30;;;;;;;18.64;59.29;100918.56;5060615;28;20049;-78
2022/08/13 04:38:12;;;;;;;9.05;5.90;;;;;;;18.62;59.09;100918.75;5052403;28;20154;-78
2022/08/13 04:40:41;;;;;;;10.48;5.85;;;;;;;18.71;59.08;100924.69;5052417;28;20482;-79
2022/08/13 04:43:10;;;;;;;8.98;6.43;;;;;;;18.71;59.13;100911.44;5052326;28;20413;-78
2022/08/13 04:45:38;;;;;;;7.85;6.40;;;;;;;18.71;58.67;100914.91;5053710;28;20053;-77
2022/08/13 04:48:09;;;;;;;10.85;6.18;;;;;;;18.77;58.63;100915.94;5053551;28;20105;-79
2022/08/13 04:50:37;;;;;;;10.07;6.20;;;;;;;18.80;58.65;100913.69;5052517;28;20084;-78
2022/08/13 04:53:06;;;;;;;10.00;6.10;;;;;;;18.92;58.99;100916.53;5052545;28;20080;-77
2022/08/13 04:55:34;;;;;;;7.82;5.50;;;;;;;18.95;58.90;100915.31;5051334;28;20052;-76
2022/08/13 04:58:01;;;;;;;6.75;5.63;;;;;;;18.99;58.29;100921.84;5051276;28;20095;-78
2022/08/13 05:00:32;;;;;;;12.20;6.35;;;;;;;19.09;57.99;100912.47;5051459;28;20116;-78
2022/08/13 05:03:07;;;;;;;13.43;6.00;;;;;;;19.04;58.02;100917.56;5056629;28;20110;-79
2022/08/13 05:05:35;;;;;;;14.70;6.18;;;;;;;19.10;57.88;100915.94;5057350;28;20504;-80
2022/08/13 05:08:02;;;;;;;10.10;5.78;;;;;;;19.08;58.12;100915.31;5058321;28;20190;-79
2022/08/13 05:10:32;;;;;;;9.05;5.95;;;;;;;19.15;58.06;100926.75;5054202;28;20152;-79
2022/08/13 05:13:01;;;;;;;9.30;6.03;;;;;;;19.22;58.32;100924.91;5057927;28;20075;-80
2022/08/13 05:15:28;;;;;;;9.60;5.75;;;;;;;19.33;58.49;100921.63;5056272;28;20044;-79
2022/08/13 05:17:54;;;;;;;8.82;6.22;;;;;;;19.36;58.07;100923.88;5056905;28;20530;-80
2022/08/13 05:20:22;;;;;;;10.40;5.90;;;;;;;19.40;57.86;100925.06;5055541;28;20110;-78
2022/08/13 05:22:50;;;;;;;7.60;5.82;;;;;;;19.68;57.35;100913.41;5055259;28;20049;-81
2022/08/13 05:25:17;;;;;;;9.68;5.72;;;;;;;20.30;55.99;100914.59;5055669;28;20055;-80
2022/08/13 05:27:47;;;;;;;9.88;5.50;;;;;;;20.29;55.93;100912.97;5056867;28;20056;-80
2022/08/13 05:30:14;;;;;;;9.63;5.70;;;;;;;20.40;55.89;100915.75;5059506;28;20045;-81
2022/08/13 05:32:42;;;;;;;10.43;5.70;;;;;;;20.71;55.45;100922.94;5060077;28;20075;-79
2022/08/13 05:35:11;;;;;;;8.38;5.93;;;;;;;21.05;54.48;100910.19;5061488;28;20112;-80
2022/08/13 05:37:39;;;;;;;6.65;5.57;;;;;;;22.07;52.16;100917.56;5064209;28;20044;-80
2022/08/13 05:40:07;;;;;;;10.60;5.53;;;;;;;23.16;49.91;100900.31;5064019;28;20053;-78
2022/08/13 05:42:39;;;;;;;9.18;5.43;;;;;;;24.02;47.78;100905.88;5064170;28;20048;-80
2022/08/13 05:45:08;;;;;;;11.68;5.35;;;;;;;23.56;48.79;100920.19;5063481;28;20060;-80
2022/08/13 05:47:37;;;;;;;8.85;5.53;;;;;;;24.12;47.34;100904.19;5059629;28;20057;-80
2022/08/13 05:50:13;;;;;;;12.88;6.85;;;;;;;25.20;45.94;100915.69;5060577;28;20048;-79
2022/08/13 05:52:41;;;;;;;8.80;5.80;;;;;;;25.83;44.58;100916.28;5069071;28;20049;-80
2022/08/13 05:55:11;;;;;;;8.02;5.32;;;;;;;25.30;45.41;100915.84;5070196;28;20053;-80
2022/08/13 05:57:38;;;;;;;10.80;5.22;;;;;;;25.45;45.36;100916.06;5069045;28;20049;-80
2022/08/13 06:05:37;;;;;;;11.48;5.18;;;;;;;26.41;44.32;100924.47;5060107;28;20075;-79
2022/08/13 06:08:06;;;;;;;9.10;5.28;;;;;;;26.64;42.92;100923.31;5059030;28;20060;-79
2022/08/13 06:10:33;;;;;;;6.53;5.03;;;;;;;26.95;43.16;100926.25;5060229;28;20087;-79
2022/08/13 06:13:01;;;;;;;7.88;5.00;;;;;;;26.56;43.45;100923.78;5064615;28;20049;-81
2022/08/13 06:15:27;;;;;;;6.25;5.00;;;;;;;26.73;42.80;100921.81;5062639;28;20052;-79
2022/08/13 06:17:54;;;;;;;6.70;4.80;;;;;;;27.33;41.61;100938.66;5063828;28;20090;-80
2022/08/13 06:20:21;;;;;;;8.13;5.10;;;;;;;27.65;41.60;100935.88;5063645;28;20064;-79
2022/08/13 06:22:51;;;;;;;6.35;5.03;;;;;;;27.43;41.77;100927.94;5066259;28;20053;-80
2022/08/13 06:25:20;;;;;;;8.55;5.00;;;;;;;27.12;42.21;100937.69;5067019;28;20045;-81
2022/08/13 06:27:48;;;;;;;10.25;4.90;;;;;;;27.85;40.82;100927.91;5066870;28;20121;-79
2022/08/13 06:30:18;;;;;;;5.53;4.97;;;;;;;26.99;42.41;100932.75;5089397;22;20095;-80
2022/08/13 06:32:45;;;;;;;13.07;5.20;;;;;;;27.72;41.00;100936.44;5079363;28;20084;-80
2022/08/13 06:35:11;;;;;;;12.07;5.32;;;;;;;27.87;40.63;100933.84;5078915;28;20177;-80
2022/08/13 06:37:41;;;;;;;9.90;5.18;;;;;;;28.96;39.35;100931.88;5080847;28;20086;-80
2022/08/13 06:40:11;;;;;;;10.93;4.80;;;;;;;28.77;38.61;100936.19;5077536;28;20144;-80
2022/08/13 06:42:43;;;;;;;6.97;4.88;;;;;;;28.60;39.05;100931.84;5080480;28;20538;-81
2022/08/13 06:45:10;;;;;;;9.00;4.93;;;;;;;27.85;40.11;100929.78;5079981;28;20056;-80
2022/08/13 06:47:39;;;;;;;6.05;4.15;;;;;;;27.51;39.65;100934.69;5080824;28;20072;-81
2022/08/13 06:50:10;;;;;;;6.43;4.68;;;;;;;27.99;39.48;100937.09;5080449;28;20052;-80
2022/08/13 06:52:37;;;;;;;9.50;4.30;;;;;;;27.86;39.82;100937.59;5080762;28;20461;-82
2022/08/13 06:55:07;;;;;;;7.10;4.30;;;;;;;27.35;40.12;100937.31;5080400;28;20124;-80
2022/08/13 06:57:34;;;;;;;10.20;4.28;;;;;;;27.52;39.83;100941.69;5080360;28;20104;-80
2022/08/13 07:00:04;;;;;;;6.32;4.30;;;;;;;27.58;39.87;100940.66;5082479;28;20127;-81
2022/08/13 07:02:34;;;;;;;4.85;4.32;;;;;;;28.11;39.45;100939.53;5082367;28;20597;-79
2022/08/13 07:05:00;;;;;;;6.88;4.45;;;;;;;28.61;37.78;100932.66;5080169;28;20055;-80
2022/08/13 07:07:27;;;;;;;12.38;4.55;;;;;;;28.71;38.13;100940.75;5081034;28;20062;-80
2022/08/13 07:09:55;;;;;;;5.20;4.07;;;;;;;28.30;38.56;100931.81;5078046;28;20419;-78
2022/08/13 07:12:22;;;;;;;7.88;4.05;;;;;;;28.56;38.48;100941.53;5077347;28;20079;-81
2022/08/13 07:14:49;;;;;;;10.88;4.57;;;;;;;29.61;37.20;100940.94;5083427;28;20052;-79
2022/08/13 07:17:20;;;;;;;3.92;3.53;;;;;;;28.85;37.77;100938.34;5082779;28;20049;-79
2022/08/13 07:19:46;;;;;;;7.88;4.00;;;;;;;28.65;37.96;100934.56;5081299;28;20105;-79
2022/08/13 07:22:13;;;;;;;7.60;4.60;;;;;;;28.70;37.93;100941.81;5077613;28;20139;-78
2022/08/13 07:24:39;;;;;;;6.65;4.05;;;;;;;28.99;37.80;100925.94;5078053;28;20060;-76
2022/08/13 07:27:08;;;;;;;7.72;3.72;;;;;;;29.29;37.39;100928.59;5077763;28;20048;-80
2022/08/13 07:29:36;;;;;;;8.32;4.00;;;;;;;29.13;37.14;100935.09;5085043;28;20105;-80
2022/08/13 07:32:06;;;;;;;6.28;4.07;;;;;;;29.70;36.66;100933.88;5085661;28;20048;-82
2022/08/13 07:34:35;;;;;;;6.50;4.00;;;;;;;29.28;37.41;100932.38;5085076;28;20096;-80
2022/08/13 07:37:03;;;;;;;7.00;4.15;;;;;;;30.00;35.76;100938.34;5086389;28;20052;-80
2022/08/13 07:39:30;;;;;;;5.35;3.97;;;;;;;29.52;36.37;100935.28;5085830;28;20079;-81
2022/08/13 07:41:59;;;;;;;7.60;4.00;;;;;;;29.34;36.87;100939.34;5079601;28;20082;-80
2022/08/13 07:44:25;;;;;;;6.53;3.65;;;;;;;29.88;36.32;100940.53;5083506;28;20059;-79
2022/08/13 07:46:53;;;;;;;7.57;4.18;;;;;;;31.09;35.85;100944.31;5083176;28;20052;-80
2022/08/13 07:49:22;;;;;;;5.97;3.90;;;;;;;29.84;36.06;100944.88;5085851;28;20045;-80
2022/08/13 07:51:51;;;;;;;7.18;3.80;;;;;;;29.58;36.33;100944.16;5085670;28;20510;-79
2022/08/13 07:54:18;;;;;;;5.38;3.85;;;;;;;29.92;36.02;100939.72;5084388;28;20127;-79
2022/08/13 07:56:48;;;;;;;6.85;3.70;;;;;;;29.27;36.89;100928.06;5084185;28;20479;-81
2022/08/13 07:59:17;;;;;;;6.63;3.75;;;;;;;29.97;35.89;100931.59;5085491;28;20052;-81
2022/08/13 08:01:46;;;;;;;8.45;4.18;;;;;;;30.24;36.78;100927.72;5085161;28;20138;-80
2022/08/13 08:04:15;;;;;;;7.00;4.03;;;;;;;31.03;34.97;100938.16;5082163;28;20471;-81
2022/08/13 08:06:44;;;;;;;6.35;3.90;;;;;;;31.03;35.13;100931.94;5077483;28;20057;-79
2022/08/13 08:09:17;;;;;;;7.75;3.92;;;;;;;30.64;35.72;100927.44;5082548;28;20048;-80
2022/08/13 08:14:30;;;;;;;5.13;3.97;;;;;;;30.46;35.51;100932.66;5081883;28;20525;-80
2022/08/13 08:16:59;;;;;;;8.25;3.70;;;;;;;30.93;34.73;100935.56;5084112;28;20129;-77
2022/08/13 08:19:27;;;;;;;5.53;4.00;;;;;;;31.42;33.95;100942.66;5083000;28;20049;-80
2022/08/13 08:21:56;;;;;;;7.13;3.80;;;;;;;31.57;34.46;100941.69;5081361;28;20048;-78
2022/08/13 08:24:24;;;;;;;5.60;3.67;;;;;;;31.21;33.96;100933.94;5081070;28;20296;-79
2022/08/13 08:26:55;;;;;;;6.00;3.70;;;;;;;31.15;34.16;100937.81;5083709;28;20450;-79
2022/08/13 08:29:22;;;;;;;4.97;3.70;;;;;;;30.59;34.75;100940.97;5085509;28;20047;-80
2022/08/13 08:31:50;;;;;;;4.53;3.40;;;;;;;30.50;35.23;100936.44;5084634;28;20057;-80
2022/08/13 08:34:18;;;;;;;7.13;3.42;;;;;;;31.23;34.44;100933.66;5085153;28;20097;-80
2022/08/13 08:36:45;;;;;;;4.15;3.30;;;;;;;30.89;34.18;100929.09;5084631;28;20144;-80
2022/08/13 08:44:45;;;;;;;7.15;3.40;;;;;;;30.80;34.69;100932.69;5080292;28;20178;-79
2022/08/13 08:47:12;;;;;;;5.68;3.40;;;;;;;32.22;33.51;100933.81;5080973;28;20079;-80
2022/08/13 08:49:40;;;;;;;8.00;3.80;;;;;;;30.71;34.70;100932.53;5079224;28;20064;-81
2022/08/13 08:52:09;;;;;;;4.80;3.63;;;;;;;31.09;35.18;100933.53;5075947;28;20044;-79
2022/08/13 08:54:37;;;;;;;4.72;3.38;;;;;;;31.43;34.38;100938.84;5072795;28;20083;-78
2022/08/13 08:57:06;;;;;;;3.60;3.30;;;;;;;31.40;34.03;100930.50;5076705;28;20093;-78
2022/08/13 08:59:38;;;;;;;5.35;3.50;;;;;;;30.82;34.89;100934.03;5078543;28;20055;-79
2022/08/13 09:02:17;;;;;;;7.25;3.42;;;;;;;30.98;34.62;100923.88;5079752;28;20087;-79
2022/08/13 09:04:54;;;;;;;5.95;3.40;;;;;;;30.83;34.77;100924.03;5079001;28;20142;-80
2022/08/13 09:07:24;;;;;;;7.60;3.67;;;;;;;31.39;34.11;100920.78;5082688;28;20426;-80
2022/08/13 09:09:55;;;;;;;5.97;3.80;;;;;;;30.80;34.51;100921.88;5082605;28;20049;-80
2022/08/13 09:12:26;;;;;;;6.65;4.00;;;;;;;31.40;34.04;100917.78;5082060;28;20051;-79
2022/08/13 09:14:53;;;;;;;3.80;3.40;;;;;;;30.22;34.87;100919.09;5081767;28;20079;-80
2022/08/13 09:17:20;;;;;;;5.70;3.35;;;;;;;30.03;35.60;100916.22;5080625;28;20131;-81
2022/08/13 09:19:47;;;;;;;5.07;3.28;;;;;;;30.49;34.66;100913.22;5083136;28;20108;-82
2022/08/13 09:22:18;;;;;;;4.50;3.13;;;;;;;30.35;35.26;100903.03;5081638;28;20068;-80
2022/08/13 09:24:46;;;;;;;5.70;3.85;;;;;;;31.16;34.55;100912.41;5082559;28;20083;-79
2022/08/13 09:27:16;;;;;;;5.00;3.30;;;;;;;31.27;33.80;100916.56;5082938;28;20471;-81
2022/08/13 09:29:44;;;;;;;4.65;3.42;;;;;;;29.72;35.47;100910.16;5080547;28;20121;-79
2022/08/13 09:32:11;;;;;;;5.65;3.80;;;;;;;29.98;35.46;100905.41;5082824;28;20048;-80
2022/08/13 09:34:39;;;;;;;3.92;3.53;;;;;;;30.76;34.54;100904.63;5081302;28;20091;-79
2022/08/13 09:37:08;;;;;;;4.07;3.45;;;;;;;30.16;35.41;100894.00;5081742;28;20055;-81
2022/08/13 09:39:37;;;;;;;6.20;3.28;;;;;;;30.79;34.31;100906.75;5082489;28;20455;-81
2022/08/13 09:42:10;;;;;;;5.22;3.15;;;;;;;29.91;35.29;100896.81;5082780;28;20053;-80
2022/08/13 09:44:42;;;;;;;6.38;3.70;;;;;;;30.08;35.43;100896.50;5081923;28;20071;-79
2022/08/13 09:47:10;;;;;;;4.57;3.50;;;;;;;29.30;36.32;100899.75;5082066;28;20131;-81
2022/08/13 09:49:37;;;;;;;4.30;3.22;;;;;;;29.58;36.14;100891.06;5082161;28;20059;-78
2022/08/13 09:52:04;;;;;;;5.72;3.30;;;;;;;29.40;36.29;100897.00;5081739;28;20463;-81
2022/08/13 09:54:32;;;;;;;4.55;3.60;;;;;;;29.79;36.34;100886.34;5081976;28;20059;-80
2022/08/13 09:56:59;;;;;;;4.53;3.70;;;;;;;29.92;35.82;100883.06;5080437;28;20048;-79
2022/08/13 09:59:26;;;;;;;4.57;3.60;;;;;;;30.51;35.59;100884.84;5080436;28;20053;-81
2022/08/13 10:01:55;;;;;;;4.88;3.40;;;;;;;30.42;35.13;100874.91;5080664;28;20048;-80
2022/08/13 10:04:23;;;;;;;5.20;3.50;;;;;;;30.76;34.83;100874.91;5081899;28;20100;-81
2022/08/13 10:06:50;;;;;;;5.03;3.60;;;;;;;30.74;35.26;100874.38;5082662;28;20048;-79
2022/08/13 10:09:16;;;;;;;4.00;3.60;;;;;;;30.39;35.56;100873.59;5085374;28;20045;-81
2022/08/13 10:11:43;;;;;;;4.45;3.67;;;;;;;30.23;35.94;100866.72;5082134;28;20058;-80
2022/08/13 10:14:10;;;;;;;10.25;3.92;;;;;;;31.32;35.34;100872.47;5079702;28;20070;-81
2022/08/13 10:16:36;;;;;;;6.05;3.90;;;;;;;31.56;34.35;100857.03;5076946;28;20474;-80
2022/08/13 10:19:04;;;;;;;5.47;3.88;;;;;;;30.63;34.56;100857.50;5077741;28;20052;-82
2022/08/13 10:21:32;;;;;;;4.70;3.45;;;;;;;29.87;35.77;100868.78;5083422;28;20083;-80
2022/08/13 10:23:59;;;;;;;4.20;3.80;;;;;;;30.09;35.94;100854.94;5084179;28;20048;-79
2022/08/13 10:26:25;;;;;;;7.95;3.70;;;;;;;30.20;35.34;100851.06;5079231;28;20049;-80
2022/08/13 10:28:52;;;;;;;4.78;3.67;;;;;;;30.60;35.52;100856.16;5061554;28;20355;-79
2022/08/13 10:31:18;;;;;;;5.00;3.72;;;;;;;30.93;35.32;100845.56;5061550;28;20128;-79
2022/08/13 10:33:45;;;;;;;6.57;4.10;;;;;;;30.46;35.24;100847.06;5062568;28;20045;-81
2022/08/13 10:36:14;;;;;;;8.88;3.78;;;;;;;30.39;35.09;100841.19;5072298;28;20048;-81
2022/08/13 10:38:42;;;;;;;4.38;3.80;;;;;;;30.93;35.15;100837.47;5062301;28;20099;-81
2022/08/13 10:41:09;;;;;;;4.35;3.70;;;;;;;30.38;35.47;100832.28;5068679;28;20076;-82
2022/08/13 10:43:38;;;;;;;10.55;4.28;;;;;;;31.56;35.16;100835.38;5081956;28;20052;-81
2022/08/13 10:46:06;;;;;;;7.05;3.70;;;;;;;30.84;34.25;100833.78;5080936;28;20052;-79
2022/08/13 10:48:33;;;;;;;4.00;3.60;;;;;;;30.75;34.83;100830.88;5064619;28;20053;-80
2022/08/13 10:51:00;;;;;;;4.45;3.72;;;;;;;31.22;34.87;100829.31;5062028;28;20049;-81
2022/08/13 10:56:13;;;;;;;5.75;3.83;;;;;;;31.76;33.78;100817.28;5083197;28;20074;-83
2022/08/13 10:58:41;;;;;;;12.30;3.85;;;;;;;31.93;33.38;100826.50;5081898;28;20102;-78
2022/08/13 11:01:08;;;;;;;4.53;3.53;;;;;;;31.06;33.95;100823.28;5083731;28;20048;-81
2022/08/13 11:03:35;;;;;;;3.83;3.30;;;;;;;30.93;33.64;100810.44;5081486;28;20063;-79
2022/08/13 11:06:11;;;;;;;4.93;3.45;;;;;;;31.06;33.34;100817.88;5075802;28;20052;-75
2022/08/13 11:09:00;;;;;;;6.20;3.72;;;;;;;30.24;33.72;100792.75;5073511;28;20105;-76
2022/08/13 11:11:32;;;;;;;5.50;3.40;;;;;;;30.54;34.18;100816.75;5058397;28;20048;-77
2022/08/13 11:14:18;;;;;;;3.75;3.35;;;;;;;30.60;33.87;100804.84;5075920;28;20044;-77
2022/08/13 11:16:58;;;;;;;4.63;3.50;;;;;;;30.97;33.32;100800.69;5074411;28;20048;-80
2022/08/13 11:19:28;;;;;;;6.38;3.78;;;;;;;31.25;33.02;100797.09;5058036;28;20110;-81
2022/08/13 11:21:56;;;;;;;5.43;3.70;;;;;;;31.17;32.86;100800.47;5072455;28;20479;-80
2022/08/13 11:24:23;;;;;;;3.85;3.35;;;;;;;31.10;32.88;100799.19;5069306;28;20072;-80
2022/08/13 11:26:51;;;;;;;3.90;3.50;;;;;;;31.08;33.46;100802.19;5076358;28;20056;-82
2022/08/13 11:29:18;;;;;;;3.92;3.50;;;;;;;31.22;32.48;100791.47;5072288;28;20068;-82
2022/08/13 11:31:44;;;;;;;3.63;3.08;;;;;;;31.01;32.70;100790.91;5074785;28;20076;-80
2022/08/13 11:34:11;;;;;;;3.78;3.47;;;;;;;31.40;32.02;100788.00;5074735;28;20056;-81
2022/08/13 11:36:38;;;;;;;7.53;3.80;;;;;;;31.26;32.83;100787.09;5081230;28;20075;-80
2022/08/13 11:39:06;;;;;;;3.60;3.30;;;;;;;31.31;32.97;100777.03;5079756;28;20044;-81
2022/08/13 11:41:33;;;;;;;7.90;4.50;;;;;;;31.75;32.70;100775.91;5072789;28;20557;-82
2022/08/13 11:44:01;;;;;;;3.83;3.50;;;;;;;31.57;32.32;100774.00;5071333;28;20045;-81
2022/08/13 11:46:30;;;;;;;6.68;3.40;;;;;;;31.43;32.97;100775.81;5072649;28;20084;-80
2022/08/13 11:48:57;;;;;;;5.75;3.50;;;;;;;31.38;32.75;100776.66;5070842;28;20044;-82
2022/08/13 11:51:24;;;;;;;6.40;3.40;;;;;;;31.41;32.73;100776.09;5070279;28;20108;-81
2022/08/13 11:53:51;;;;;;;4.95;3.50;;;;;;;31.87;32.53;100773.53;5068000;28;20041;-81
2022/08/13 11:56:18;;;;;;;3.67;3.38;;;;;;;31.51;32.34;100772.44;5072741;28;20139;-80